< < Back
Terminal Aerodrome Forecast


Current Version              Previous Versions:   1  2  3  4  5  6  7  8  9  

Terminal Aerodrome Forecast

259
FTUS42 KGSP 192000 AAA
TAFCLT
TAF AMD
KCLT 192058Z 1921/2018 01010KT 3SM -RADZ BR BKN008 OVC020
      TEMPO 1921/1923 02012G20KT 2SM RA
     FM192300 03012KT 3SM -RA BR FEW006 BKN019 OVC035
     FM200100 04014G20KT 6SM -RA BR OVC025
     FM200600 04012G20KT P6SM VCSH BKN040
     FM201400 05010KT P6SM SCT080=

Latest METAR

422
SAUS70 KWBC 200800 RRM
MTRCLT
METAR KCLT 200752Z 01005KT 7SM SCT085 BKN120 OVC140 11/07 A3019 RMK AO2
RAE32 SLP221 P0000 T01060072


USA.gov is the U.S. government's official web portal to all federal, state and local government web resources and services.